Startpagina
METAR-TAF:

METAR-TAF

Vliegvelden :

Francistown Airport

Francistown, Botswana

breedte: 21-13S, lengte: 027-30E, hoogte: 1001 m

Actueel weer

Dit bericht is 1 uur en het 2 minuten geleden gemaakt, om 15:00 UTC
Wind 9 kt uit het oostzuidoosten, variërend tussen het oosten en het zuidzuidoosten
Temperatuur 32°C
Vochtigheid 32%
Druk 1013 hPa
Zicht 10 km of meer
Gebroken wolken op 3000 ft

METAR: FBFT 121500Z 12009KT 080V160 9999 BKN030 32/13 Q1013

Tijdstip: 18:02 (16:02 UTC)

Verwachting

Dit bericht is 4 uur en het 2 minuten geleden gemaakt, om 12:00 UTC
Verwachting geldig van 12 om 15 UTC tot 12 om 24 UTC
Wind 10 kt uit het oostzuidoosten
Zicht 10 km of meer
Verspreide wolken op 3000 ft

TAF: FBFT 121200Z 1215/1224 11010KT 9999 SCT030

Waarnemingen en weersverwachtingen van meer dan 4000 vliegvelden (METAR en TAF).

De beschikbare stations zijn de gele en rode punten op de kaart.

Ga met uw muis naar het station om de naam te zien.

Klik dan om waarnemingen en weersverwachtingen te zien.

kaart wijzigen: klik op de groene knoppen met een zwart kruis om in te zoomen, op de groene knop met een streepje om uit te zoomen of op de groene pijlen voor aangrenzende kaarten.


METAR-TAF: